createdAt,value
2018-09-01T00:01:19.329Z,8.00
2018-09-01T00:06:15.996Z,7.40
2018-09-01T00:11:13.094Z,7.07
2018-09-01T00:16:09.761Z,7.00
2018-09-01T00:21:06.691Z,7.37
2018-09-01T00:26:03.414Z,7.63
2018-09-01T00:31:00.375Z,6.97
2018-09-01T00:35:57.538Z,7.50
2018-09-01T00:40:54.563Z,7.30
2018-09-01T00:45:51.482Z,7.73
2018-09-01T00:50:48.215Z,7.23
2018-09-01T00:55:45.091Z,7.47
2018-09-01T01:00:41.835Z,7.97
2018-09-01T01:05:38.821Z,8.03
2018-09-01T01:10:35.578Z,7.80
2018-09-01T01:15:32.538Z,7.87
2018-09-01T01:20:29.309Z,7.97
2018-09-01T01:25:26.249Z,7.90
2018-09-01T01:30:22.985Z,8.00
2018-09-01T01:35:20.078Z,8.13
2018-09-01T01:40:16.873Z,8.10
2018-09-01T01:45:14.413Z,7.73
2018-09-01T01:50:11.857Z,7.30
2018-09-01T01:55:08.844Z,8.30
2018-09-01T02:00:06.360Z,8.10
2018-09-01T02:05:03.697Z,7.60
2018-09-01T02:10:00.406Z,7.60
2018-09-01T02:14:57.413Z,7.57
2018-09-01T02:19:54.100Z,8.50
2018-09-01T02:24:51.128Z,8.40
2018-09-01T02:29:47.999Z,8.57
2018-09-01T02:34:45.882Z,8.60
2018-09-01T02:39:43.029Z,8.33
2018-09-01T02:44:40.222Z,8.37
2018-09-01T02:49:36.993Z,7.80
2018-09-01T02:54:34.151Z,8.20
2018-09-01T02:59:30.927Z,8.50
2018-09-01T03:04:27.954Z,8.30
2018-09-01T03:09:25.122Z,8.40
2018-09-01T03:14:23.412Z,8.77
2018-09-01T03:19:20.172Z,8.73
2018-09-01T03:24:17.133Z,7.73
2018-09-01T03:29:13.983Z,8.70
2018-09-01T03:34:11.700Z,8.47
2018-09-01T03:39:08.646Z,8.27
2018-09-01T03:44:05.900Z,8.30
2018-09-01T03:49:04.361Z,7.40
2018-09-01T03:54:01.463Z,7.27
2018-09-01T03:58:58.348Z,7.77
2018-09-01T04:03:55.202Z,7.17
2018-09-01T04:08:51.931Z,6.80
2018-09-01T04:13:48.800Z,7.03
2018-09-01T04:18:45.882Z,6.90
2018-09-01T04:23:42.439Z,6.23
2018-09-01T04:28:39.219Z,6.43
2018-09-01T04:33:36.272Z,6.23
2018-09-01T04:38:33.050Z,5.80
2018-09-01T04:43:30.276Z,5.93
2018-09-01T04:48:27.009Z,6.90
2018-09-01T04:53:24.106Z,6.50
2018-09-01T04:58:20.823Z,6.40
2018-09-01T05:03:17.729Z,6.23
2018-09-01T05:08:14.698Z,6.57
2018-09-01T05:13:11.469Z,6.27
2018-09-01T05:18:08.413Z,6.40
2018-09-01T05:23:05.869Z,5.80
2018-09-01T05:28:02.951Z,5.97
2018-09-01T05:33:00.021Z,5.90
2018-09-01T05:37:56.766Z,5.80
2018-09-01T05:42:53.928Z,5.53
2018-09-01T05:47:50.715Z,5.27
2018-09-01T05:52:47.771Z,5.70
2018-09-01T05:57:44.722Z,5.30
2018-09-01T06:02:41.383Z,6.17
2018-09-01T06:07:38.441Z,5.27
2018-09-01T06:12:35.431Z,5.90
2018-09-01T06:17:32.507Z,5.10
2018-09-01T06:22:29.194Z,4.47
2018-09-01T06:27:30.058Z,5.27
2018-09-01T06:32:27.176Z,4.67
2018-09-01T06:37:24.099Z,4.57
2018-09-01T06:42:20.834Z,4.60
2018-09-01T06:47:17.815Z,4.90
2018-09-01T06:52:14.714Z,4.50
2018-09-01T06:57:11.557Z,3.83
2018-09-01T07:02:08.381Z,3.43
2018-09-01T07:07:05.402Z,3.53
2018-09-01T07:12:02.121Z,3.50
2018-09-01T07:16:59.910Z,3.17
2018-09-01T07:21:56.675Z,3.43
2018-09-01T07:26:53.728Z,3.60
2018-09-01T07:31:50.801Z,3.40
2018-09-01T07:36:47.542Z,2.93
2018-09-01T07:41:44.508Z,2.53
2018-09-01T07:46:41.362Z,2.40
2018-09-01T07:51:38.655Z,2.70
2018-09-01T07:56:35.442Z,2.60
2018-09-01T08:01:32.473Z,2.37
2018-09-01T08:06:29.213Z,2.30
2018-09-01T08:11:26.207Z,2.73
2018-09-01T08:16:22.900Z,2.30
2018-09-01T08:21:20.072Z,2.50
2018-09-01T08:26:16.841Z,2.77
2018-09-01T08:31:13.733Z,2.40
2018-09-01T08:36:10.412Z,1.93
2018-09-01T08:41:08.221Z,2.33
2018-09-01T08:46:05.377Z,2.10
2018-09-01T08:51:02.419Z,2.50
2018-09-01T08:55:59.152Z,2.00
2018-09-01T09:00:56.242Z,2.50
2018-09-01T09:05:53.121Z,2.00
2018-09-01T09:10:50.118Z,2.47
2018-09-01T09:15:46.890Z,2.45
2018-09-01T09:20:45.105Z,2.20
2018-09-01T09:25:41.833Z,2.65
2018-09-01T09:30:38.912Z,2.25
2018-09-01T09:35:35.989Z,2.35
2018-09-01T09:40:32.973Z,2.35
2018-09-01T09:45:30.495Z,2.35
2018-09-01T09:50:27.300Z,2.10
2018-09-01T09:55:24.034Z,2.35
2018-09-01T10:01:29.819Z,2.67
2018-09-01T10:06:26.577Z,2.45
2018-09-01T10:11:23.338Z,2.20
2018-09-01T10:16:20.034Z,2.50
2018-09-01T10:21:17.220Z,2.27
2018-09-01T10:26:14.156Z,2.37
2018-09-01T10:31:11.395Z,2.35
2018-09-01T10:36:08.298Z,2.30
2018-09-01T10:41:05.621Z,2.65
2018-09-01T10:46:10.244Z,2.70
2018-09-01T10:51:07.082Z,2.35
2018-09-01T10:56:04.434Z,2.05
2018-09-01T11:01:01.293Z,2.83
2018-09-01T11:05:58.784Z,2.87
2018-09-01T11:10:55.754Z,2.90
2018-09-01T11:15:53.253Z,2.50
2018-09-01T11:20:50.475Z,2.27
2018-09-01T11:25:47.831Z,2.70
2018-09-01T11:30:44.823Z,2.50
2018-09-01T11:35:42.394Z,2.40
2018-09-01T11:40:39.911Z,2.62
2018-09-01T11:50:41.671Z,2.45
2018-09-01T11:55:38.861Z,2.50
2018-09-01T12:00:36.190Z,2.47
2018-09-01T12:05:33.508Z,2.85
2018-09-01T12:10:33.850Z,2.52
2018-09-01T12:15:31.193Z,2.25
2018-09-01T12:25:49.765Z,2.40
2018-09-01T12:30:46.476Z,2.50
2018-09-01T12:35:43.829Z,2.42
2018-09-01T12:40:40.543Z,2.20
2018-09-01T12:45:37.938Z,2.93
2018-09-01T12:50:34.726Z,2.40
2018-09-01T12:55:31.848Z,2.30
2018-09-01T13:00:28.685Z,2.83
2018-09-01T13:05:25.799Z,3.37
2018-09-01T13:10:22.659Z,2.20
2018-09-01T13:15:19.333Z,2.52
2018-09-01T13:20:16.231Z,2.42
2018-09-01T13:25:13.037Z,3.00
2018-09-01T13:30:10.060Z,2.52
2018-09-01T13:35:06.804Z,3.05
2018-09-01T13:40:03.946Z,2.67
2018-09-01T13:45:00.794Z,2.58
2018-09-01T13:49:58.147Z,2.27
2018-09-01T13:54:54.912Z,2.50
2018-09-01T13:59:51.626Z,2.60
2018-09-01T14:04:48.504Z,2.83
2018-09-01T14:09:45.191Z,2.70
2018-09-01T14:14:42.435Z,2.55
2018-09-01T14:19:39.390Z,3.10
2018-09-01T14:24:36.477Z,3.02
2018-09-01T14:29:34.355Z,2.63
2018-09-01T14:34:31.492Z,3.70
2018-09-01T14:39:28.419Z,2.60
2018-09-01T14:44:25.375Z,3.10
2018-09-01T14:49:22.121Z,3.40
2018-09-01T14:54:19.167Z,3.12
2018-09-01T14:59:15.922Z,2.80
2018-09-01T15:04:12.965Z,2.50
2018-09-01T15:09:09.958Z,2.87
2018-09-01T15:14:06.563Z,3.20
2018-09-01T15:19:03.450Z,3.27
2018-09-01T15:24:00.241Z,3.47
2018-09-01T15:28:57.401Z,3.77
2018-09-01T15:33:54.152Z,3.13
2018-09-01T15:38:51.188Z,3.40
2018-09-01T15:43:48.045Z,3.37
2018-09-01T15:48:45.144Z,2.53
2018-09-01T15:53:42.096Z,3.07
2018-09-01T15:58:39.171Z,3.63
2018-09-01T16:03:35.993Z,11.80
2018-09-01T16:08:32.960Z,3.10
2018-09-01T16:13:29.758Z,3.27
2018-09-01T16:18:27.308Z,2.97
2018-09-01T16:23:24.359Z,3.70
2018-09-01T16:28:21.108Z,2.80
2018-09-01T16:33:18.333Z,3.60
2018-09-01T16:38:15.275Z,2.97
2018-09-01T16:43:12.520Z,3.03
2018-09-01T16:48:09.475Z,3.67
2018-09-01T16:53:06.567Z,3.03
2018-09-01T16:58:03.495Z,2.93
2018-09-01T17:03:00.481Z,3.20
2018-09-01T17:07:57.277Z,3.23
2018-09-01T17:12:54.621Z,3.03
2018-09-01T17:17:51.493Z,3.30
2018-09-01T17:22:48.258Z,2.93
2018-09-01T17:27:44.999Z,3.07
2018-09-01T17:32:42.669Z,2.70
2018-09-01T17:37:39.452Z,3.37
2018-09-01T17:42:36.748Z,2.97
2018-09-01T17:47:34.092Z,3.30
2018-09-01T17:52:31.025Z,3.03
2018-09-01T17:57:27.999Z,3.20
2018-09-01T18:02:25.388Z,2.93
2018-09-01T18:07:22.094Z,3.17
2018-09-01T18:12:19.099Z,3.40
2018-09-01T18:17:15.825Z,4.07
2018-09-01T18:22:13.329Z,3.03
2018-09-01T18:27:10.368Z,3.03
2018-09-01T18:32:07.446Z,3.70
2018-09-01T18:37:04.267Z,3.20
2018-09-01T18:42:01.869Z,2.77
2018-09-01T18:46:58.649Z,3.20
2018-09-01T18:51:56.613Z,3.63
2018-09-01T18:56:53.803Z,3.97
2018-09-01T19:01:50.547Z,4.97
2018-09-01T19:06:47.527Z,4.00
2018-09-01T19:11:44.190Z,4.43
2018-09-01T19:16:41.242Z,5.07
2018-09-01T19:21:37.999Z,4.93
2018-09-01T19:26:35.170Z,4.63
2018-09-01T19:31:31.985Z,3.83
2018-09-01T19:36:29.590Z,4.13
2018-09-01T19:41:26.373Z,5.10
2018-09-01T19:46:23.402Z,4.97
2018-09-01T19:51:20.208Z,4.40
2018-09-01T19:56:17.033Z,4.10
2018-09-01T20:01:14.258Z,4.27
2018-09-01T20:06:11.569Z,4.33
2018-09-01T20:11:08.322Z,4.00
2018-09-01T20:16:05.089Z,5.13
2018-09-01T20:21:01.967Z,4.90
2018-09-01T20:25:58.901Z,5.43
2018-09-01T20:30:55.874Z,5.43
2018-09-01T20:35:55.805Z,6.67
2018-09-01T20:40:53.137Z,6.07
2018-09-01T20:45:50.084Z,5.70
2018-09-01T20:50:46.969Z,6.10
2018-09-01T20:55:43.964Z,6.23
2018-09-01T21:00:40.998Z,6.70
2018-09-01T21:05:38.000Z,6.13
2018-09-01T21:10:34.836Z,5.17
2018-09-01T21:15:31.640Z,5.37
2018-09-01T21:20:28.815Z,5.20
2018-09-01T21:25:25.497Z,5.27
2018-09-01T21:30:22.517Z,4.93
2018-09-01T21:35:19.224Z,5.40
2018-09-01T21:40:16.300Z,5.73
2018-09-01T21:45:13.618Z,5.10
2018-09-01T21:50:10.883Z,5.57
2018-09-01T21:55:07.876Z,5.20
2018-09-01T22:00:04.993Z,5.30
2018-09-01T22:05:07.650Z,5.33
2018-09-01T22:10:04.417Z,5.10
2018-09-01T22:15:01.513Z,5.57
2018-09-01T22:19:58.282Z,5.13
2018-09-01T22:24:55.307Z,5.37
2018-09-01T22:29:52.031Z,5.40
2018-09-01T22:34:49.121Z,5.30
2018-09-01T22:39:45.891Z,5.40
2018-09-01T22:44:43.133Z,5.40
2018-09-01T22:49:40.414Z,5.53
2018-09-01T22:54:37.554Z,5.40
2018-09-01T22:59:34.286Z,5.80
2018-09-01T23:04:31.322Z,5.63
2018-09-01T23:09:28.208Z,6.03
2018-09-01T23:14:25.678Z,6.00
2018-09-01T23:19:22.664Z,6.60
2018-09-01T23:24:19.744Z,6.37
2018-09-01T23:29:17.399Z,6.77
2018-09-01T23:34:14.347Z,6.47
2018-09-01T23:39:11.749Z,7.07
2018-09-01T23:44:09.774Z,6.70
2018-09-01T23:49:06.589Z,6.47
2018-09-01T23:54:04.368Z,7.17
2018-09-01T23:59:01.233Z,7.20
